createdAt,value
2022-10-13T00:00:49.561Z,101267.00
2022-10-13T00:03:17.626Z,101274.00
2022-10-13T00:05:49.245Z,101277.00
2022-10-13T00:08:20.044Z,101277.00
2022-10-13T00:10:50.482Z,101270.00
2022-10-13T00:13:19.154Z,101262.00
2022-10-13T00:15:48.136Z,101266.00
2022-10-13T00:18:16.633Z,101259.00
2022-10-13T00:20:47.826Z,101253.00
2022-10-13T00:23:16.107Z,101258.00
2022-10-13T00:25:51.903Z,101251.00
2022-10-13T00:28:20.620Z,101250.00
2022-10-13T00:30:48.648Z,101268.00
2022-10-13T00:33:15.707Z,101260.00
2022-10-13T00:35:47.507Z,101249.00
2022-10-13T00:38:20.526Z,101258.00
2022-10-13T00:40:50.318Z,101259.00
2022-10-13T00:43:47.568Z,101271.00
2022-10-13T00:46:15.650Z,101268.00
2022-10-13T00:48:45.171Z,101267.00
2022-10-13T00:51:16.197Z,101269.00
2022-10-13T00:53:45.267Z,101274.00
2022-10-13T00:56:14.149Z,101266.00
2022-10-13T00:58:42.258Z,101264.00
2022-10-13T01:01:09.240Z,101259.00
2022-10-13T01:03:37.697Z,101261.00
2022-10-13T01:06:08.010Z,101250.00
2022-10-13T01:08:35.436Z,101250.00
2022-10-13T01:11:48.237Z,101266.00
2022-10-13T01:14:29.764Z,101261.00
2022-10-13T01:17:15.126Z,101247.00
2022-10-13T01:20:00.812Z,101239.00
2022-10-13T01:23:04.447Z,101242.00
2022-10-13T01:26:10.038Z,101247.00
2022-10-13T01:29:13.260Z,101243.00
2022-10-13T01:32:07.750Z,101243.00
2022-10-13T01:34:40.420Z,101239.00
2022-10-13T01:37:18.942Z,101237.00
2022-10-13T01:40:12.352Z,101242.00
2022-10-13T01:43:12.989Z,101233.00
2022-10-13T01:46:14.438Z,101232.00
2022-10-13T01:48:45.483Z,101234.00
2022-10-13T01:51:19.192Z,101245.00
2022-10-13T01:53:47.706Z,101236.00
2022-10-13T01:56:15.909Z,101234.00
2022-10-13T01:58:43.427Z,101233.00
2022-10-13T02:01:34.144Z,101229.00
2022-10-13T02:04:22.517Z,101230.00
2022-10-13T02:07:16.235Z,101224.00
2022-10-13T02:10:06.650Z,101218.00
2022-10-13T02:13:08.502Z,101214.00
2022-10-13T02:15:45.234Z,101212.00
2022-10-13T02:18:20.102Z,101217.00
2022-10-13T02:20:48.175Z,101212.00
2022-10-13T02:23:18.680Z,101209.00
2022-10-13T02:25:48.280Z,101211.00
2022-10-13T02:28:16.674Z,101201.00
2022-10-13T02:30:46.225Z,101196.00
2022-10-13T02:33:14.527Z,101204.00
2022-10-13T02:35:42.745Z,101204.00
2022-10-13T02:38:10.629Z,101198.00
2022-10-13T02:40:38.169Z,101203.00
2022-10-13T02:43:05.768Z,101200.00
2022-10-13T02:45:32.675Z,101190.00
2022-10-13T02:47:59.610Z,101198.00
2022-10-13T02:50:26.762Z,101203.00
2022-10-13T02:52:55.624Z,101201.00
2022-10-13T02:55:22.517Z,101196.00
2022-10-13T02:57:49.401Z,101183.00
2022-10-13T03:00:16.920Z,101184.00
2022-10-13T03:02:44.123Z,101187.00
2022-10-13T03:05:11.226Z,101184.00
2022-10-13T03:07:38.642Z,101178.00
2022-10-13T03:10:06.332Z,101186.00
2022-10-13T03:12:33.261Z,101183.00
2022-10-13T03:15:00.595Z,101191.00
2022-10-13T03:17:27.536Z,101187.00
2022-10-13T03:19:54.500Z,101185.00
2022-10-13T03:22:21.770Z,101190.00
2022-10-13T03:24:48.969Z,101192.00
2022-10-13T03:27:16.011Z,101189.00
2022-10-13T03:29:42.964Z,101188.00
2022-10-13T03:32:10.007Z,101195.00
2022-10-13T03:34:36.961Z,101172.00
2022-10-13T03:37:04.295Z,101165.00
2022-10-13T03:39:31.182Z,101182.00
2022-10-13T03:41:58.176Z,101187.00
2022-10-13T03:44:25.162Z,101170.00
2022-10-13T03:46:52.098Z,101177.00
2022-10-13T03:49:19.018Z,101174.00
2022-10-13T03:51:46.328Z,101175.00
2022-10-13T03:54:14.251Z,101171.00
2022-10-13T03:56:42.325Z,101168.00
2022-10-13T03:59:13.118Z,101164.00
2022-10-13T04:01:40.752Z,101175.00
2022-10-13T04:04:11.068Z,101167.00
2022-10-13T04:06:38.094Z,101152.00
2022-10-13T04:09:05.625Z,101169.00
2022-10-13T04:11:32.707Z,101170.00
2022-10-13T04:13:59.719Z,101158.00
2022-10-13T04:16:30.607Z,101171.00
2022-10-13T04:19:04.632Z,101163.00
2022-10-13T04:21:34.903Z,101164.00
2022-10-13T04:24:03.897Z,101161.00
2022-10-13T04:26:34.731Z,101155.00
2022-10-13T04:29:05.529Z,101153.00
2022-10-13T04:31:33.001Z,101164.00
2022-10-13T04:33:59.955Z,101154.00
2022-10-13T04:36:27.753Z,101157.00
2022-10-13T04:38:55.953Z,101161.00
2022-10-13T04:41:23.640Z,101161.00
2022-10-13T04:43:52.198Z,101163.00
2022-10-13T04:46:24.164Z,101151.00
2022-10-13T04:48:52.220Z,101159.00
2022-10-13T04:51:23.602Z,101154.00
2022-10-13T04:53:59.194Z,101154.00
2022-10-13T04:56:27.678Z,101159.00
2022-10-13T04:58:55.099Z,101154.00
2022-10-13T05:01:24.851Z,101148.00
2022-10-13T05:04:01.812Z,101158.00
2022-10-13T05:06:33.147Z,101143.00
2022-10-13T05:09:00.302Z,101144.00
2022-10-13T05:11:29.113Z,101152.00
2022-10-13T05:13:57.580Z,101140.00
2022-10-13T05:16:26.195Z,101146.00
2022-10-13T05:18:54.783Z,101137.00
2022-10-13T05:21:28.450Z,101146.00
2022-10-13T05:23:57.628Z,101134.00
2022-10-13T05:26:30.602Z,101116.00
2022-10-13T05:29:02.052Z,101126.00
2022-10-13T05:31:31.838Z,101133.00
2022-10-13T05:33:59.800Z,101114.00
2022-10-13T05:36:33.559Z,101129.00
2022-10-13T05:39:07.689Z,101131.00
2022-10-13T05:41:34.927Z,101140.00
2022-10-13T05:44:10.003Z,101131.00
2022-10-13T05:46:37.332Z,101127.00
2022-10-13T05:49:04.566Z,101120.00
2022-10-13T05:51:37.898Z,101123.00
2022-10-13T05:54:21.568Z,101127.00
2022-10-13T05:57:02.040Z,101125.00
2022-10-13T05:59:34.389Z,101121.00
2022-10-13T06:02:06.295Z,101089.00
2022-10-13T06:04:46.495Z,101102.00
2022-10-13T06:07:14.416Z,101109.00
2022-10-13T06:09:42.452Z,101118.00
2022-10-13T06:12:10.658Z,101112.00
2022-10-13T06:14:37.631Z,101102.00
2022-10-13T06:17:04.992Z,101092.00
2022-10-13T06:19:31.955Z,101101.00
2022-10-13T06:22:03.373Z,101108.00
2022-10-13T06:24:30.872Z,101101.00
2022-10-13T06:26:57.844Z,101112.00
2022-10-13T06:29:24.774Z,101109.00
2022-10-13T06:31:51.650Z,101113.00
2022-10-13T06:34:18.536Z,101101.00
2022-10-13T06:36:45.532Z,101103.00
2022-10-13T06:39:12.607Z,101112.00
2022-10-13T06:41:39.488Z,101114.00
2022-10-13T06:44:06.448Z,101100.00
2022-10-13T06:46:33.420Z,101101.00
2022-10-13T06:49:00.364Z,101133.00
2022-10-13T06:51:27.275Z,101117.00
2022-10-13T06:53:57.014Z,101125.00
2022-10-13T06:56:24.038Z,101114.00
2022-10-13T06:58:50.964Z,101111.00
2022-10-13T07:01:17.908Z,101111.00
2022-10-13T07:03:44.796Z,101113.00
2022-10-13T07:06:11.807Z,101105.00
2022-10-13T07:08:38.708Z,101099.00
2022-10-13T07:11:16.227Z,101091.00
2022-10-13T07:13:46.636Z,101086.00
2022-10-13T07:16:16.880Z,101089.00
2022-10-13T07:18:44.132Z,101090.00
2022-10-13T07:21:11.077Z,101088.00
2022-10-13T07:23:38.320Z,101090.00
2022-10-13T07:26:12.728Z,101089.00
2022-10-13T07:28:40.183Z,101086.00
2022-10-13T07:31:17.525Z,101080.00
2022-10-13T07:33:48.401Z,101065.00
2022-10-13T07:36:16.074Z,101069.00
2022-10-13T07:38:43.072Z,101053.00
2022-10-13T07:41:12.051Z,101083.00
2022-10-13T07:43:39.690Z,101080.00
2022-10-13T07:46:07.780Z,101079.00
2022-10-13T07:48:35.780Z,101074.00
2022-10-13T07:51:12.239Z,101060.00
2022-10-13T07:53:41.152Z,101060.00
2022-10-13T07:56:11.769Z,101047.00
2022-10-13T07:58:42.186Z,101028.00
2022-10-13T08:01:10.420Z,101049.00
2022-10-13T08:06:10.073Z,101038.00
2022-10-13T08:08:37.271Z,101037.00
2022-10-13T08:11:16.165Z,101037.00
2022-10-13T08:13:51.419Z,101041.00
2022-10-13T08:16:19.598Z,101036.00
2022-10-13T08:18:47.585Z,101029.00
2022-10-13T08:21:56.869Z,101031.00
2022-10-13T08:24:14.367Z,101032.00
2022-10-13T08:26:42.845Z,101032.00
2022-10-13T08:29:21.496Z,101025.00
2022-10-13T08:31:52.604Z,101022.00
2022-10-13T08:34:20.774Z,101025.00
2022-10-13T08:36:47.821Z,101020.00
2022-10-13T08:39:15.009Z,101032.00
2022-10-13T08:41:44.423Z,101026.00
2022-10-13T08:47:45.332Z,101018.00
2022-10-13T08:50:23.988Z,101019.00
2022-10-13T08:53:34.286Z,101008.00
2022-10-13T08:56:05.298Z,101013.00
2022-10-13T08:58:37.085Z,101008.00
2022-10-13T09:01:25.230Z,101008.00
2022-10-13T09:04:00.857Z,101007.00
2022-10-13T09:06:43.236Z,101017.00
2022-10-13T09:09:14.297Z,101008.00
2022-10-13T09:11:45.732Z,101012.00
2022-10-13T09:14:32.646Z,101013.00
2022-10-13T09:17:26.383Z,101008.00
2022-10-13T09:20:27.633Z,101009.00
2022-10-13T09:23:20.535Z,101008.00
2022-10-13T09:25:52.826Z,101008.00
2022-10-13T09:28:33.028Z,101001.00
2022-10-13T09:31:35.480Z,101005.00
2022-10-13T09:34:28.810Z,101008.00
2022-10-13T09:37:04.869Z,101009.00
2022-10-13T09:39:34.031Z,100981.00
2022-10-13T09:42:28.139Z,101006.00
2022-10-13T09:45:22.223Z,101001.00
2022-10-13T09:48:19.522Z,101008.00
2022-10-13T09:50:54.549Z,101011.00
2022-10-13T09:53:40.657Z,101004.00
2022-10-13T09:56:52.208Z,101000.00
2022-10-13T10:00:11.446Z,100995.00
2022-10-13T10:03:03.231Z,100993.00
2022-10-13T10:05:38.776Z,100995.00
2022-10-13T10:08:28.875Z,100993.00
2022-10-13T10:11:05.633Z,100995.00
2022-10-13T10:13:32.653Z,100994.00
2022-10-13T10:16:13.365Z,100982.00
2022-10-13T10:18:50.464Z,100986.00
2022-10-13T10:21:43.675Z,100980.00
2022-10-13T10:24:43.276Z,100984.00
2022-10-13T10:27:43.743Z,100980.00
2022-10-13T10:30:20.731Z,100976.00
2022-10-13T10:33:12.817Z,100970.00
2022-10-13T10:35:55.001Z,100964.00
2022-10-13T10:38:46.137Z,100954.00
2022-10-13T10:41:25.676Z,100958.00
2022-10-13T10:44:04.238Z,100947.00
2022-10-13T10:46:39.143Z,100956.00
2022-10-13T10:49:28.514Z,100929.00
2022-10-13T10:51:56.486Z,100940.00
2022-10-13T10:54:39.258Z,100942.00
2022-10-13T10:57:41.161Z,100942.00
2022-10-13T11:00:18.864Z,100932.00
2022-10-13T11:03:31.516Z,100933.00
2022-10-13T11:06:17.857Z,100919.00
2022-10-13T11:08:49.844Z,100907.00
2022-10-13T11:11:26.590Z,100926.00
2022-10-13T11:14:22.686Z,100905.00
2022-10-13T11:16:58.452Z,100918.00
2022-10-13T11:19:38.168Z,100920.00
2022-10-13T11:22:05.562Z,100908.00
2022-10-13T11:24:41.189Z,100903.00
2022-10-13T11:27:08.028Z,100904.00
2022-10-13T11:29:51.755Z,100901.00
2022-10-13T11:32:41.203Z,100909.00
2022-10-13T11:35:08.062Z,100910.00
2022-10-13T11:38:06.039Z,100896.00
2022-10-13T11:40:53.465Z,100905.00
2022-10-13T11:43:41.238Z,100897.00
2022-10-13T11:46:27.607Z,100888.00
2022-10-13T11:49:29.447Z,100881.00
2022-10-13T11:52:54.145Z,100889.00
2022-10-13T11:55:51.606Z,100873.00
2022-10-13T11:58:24.925Z,100886.00
2022-10-13T12:01:14.066Z,100886.00
2022-10-13T12:03:45.512Z,100873.00
2022-10-13T12:06:35.666Z,100872.00
2022-10-13T12:09:31.829Z,100871.00
2022-10-13T12:12:18.682Z,100862.00
2022-10-13T12:14:51.053Z,100864.00
2022-10-13T12:17:27.647Z,100854.00
2022-10-13T12:20:24.127Z,100855.00
2022-10-13T12:22:52.599Z,100858.00
2022-10-13T12:25:23.581Z,100850.00
2022-10-13T12:27:58.760Z,100855.00
2022-10-13T12:30:37.128Z,100859.00
2022-10-13T12:33:22.639Z,100850.00
2022-10-13T12:35:49.761Z,100848.00
2022-10-13T12:38:20.691Z,100838.00
2022-10-13T12:40:51.000Z,100844.00
2022-10-13T12:43:25.372Z,100837.00
2022-10-13T12:45:52.729Z,100836.00
2022-10-13T12:48:36.230Z,100826.00
2022-10-13T12:51:29.620Z,100832.00
2022-10-13T12:53:57.401Z,100821.00
2022-10-13T12:56:33.260Z,100825.00
2022-10-13T12:59:00.878Z,100827.00
2022-10-13T13:01:35.333Z,100833.00
2022-10-13T13:04:23.491Z,100827.00
2022-10-13T13:06:59.973Z,100829.00
2022-10-13T13:09:29.964Z,100823.00
2022-10-13T13:12:12.104Z,100823.00
2022-10-13T13:14:41.738Z,100822.00
2022-10-13T13:17:13.137Z,100818.00
2022-10-13T13:19:43.290Z,100806.00
2022-10-13T13:22:10.717Z,100809.00
2022-10-13T13:24:40.467Z,100803.00
2022-10-13T13:27:36.348Z,100805.00
2022-10-13T13:30:04.169Z,100805.00
2022-10-13T13:32:32.365Z,100801.00
2022-10-13T13:34:59.274Z,100805.00
2022-10-13T13:37:33.990Z,100781.00
2022-10-13T13:40:01.647Z,100798.00
2022-10-13T13:42:29.600Z,100796.00
2022-10-13T13:44:57.081Z,100800.00
2022-10-13T13:47:27.677Z,100792.00
2022-10-13T13:49:56.904Z,100782.00
2022-10-13T13:52:26.060Z,100797.00
2022-10-13T13:54:53.351Z,100795.00
2022-10-13T13:57:20.966Z,100800.00
2022-10-13T13:59:48.161Z,100800.00
2022-10-13T14:02:21.594Z,100794.00
2022-10-13T14:04:49.247Z,100791.00
2022-10-13T14:07:18.164Z,100797.00
2022-10-13T14:09:45.988Z,100791.00
2022-10-13T14:12:13.020Z,100780.00
2022-10-13T14:14:39.980Z,100780.00
2022-10-13T14:17:06.926Z,100776.00
2022-10-13T14:19:33.918Z,100777.00
2022-10-13T14:22:03.744Z,100772.00
2022-10-13T14:24:35.462Z,100774.00
2022-10-13T14:27:02.358Z,100768.00
2022-10-13T14:29:29.756Z,100762.00
2022-10-13T14:31:56.699Z,100753.00
2022-10-13T14:34:23.792Z,100759.00
2022-10-13T14:36:50.718Z,100748.00
2022-10-13T14:39:17.672Z,100762.00
2022-10-13T14:41:44.653Z,100758.00
2022-10-13T14:44:13.766Z,100763.00
2022-10-13T14:46:41.431Z,100765.00
2022-10-13T14:49:10.459Z,100759.00
2022-10-13T14:51:37.385Z,100749.00
2022-10-13T14:54:06.113Z,100762.00
2022-10-13T14:56:33.938Z,100751.00
2022-10-13T14:59:04.442Z,100750.00
2022-10-13T15:01:33.340Z,100731.00
2022-10-13T15:04:01.938Z,100749.00
2022-10-13T15:06:29.525Z,100748.00
2022-10-13T15:08:56.783Z,100748.00
2022-10-13T15:11:25.239Z,100747.00
2022-10-13T15:13:52.818Z,100731.00
2022-10-13T15:16:27.832Z,100750.00
2022-10-13T15:18:56.403Z,100747.00
2022-10-13T15:21:24.555Z,100744.00
2022-10-13T15:23:51.890Z,100720.00
2022-10-13T15:26:20.691Z,100747.00
2022-10-13T15:28:51.751Z,100726.00
2022-10-13T15:31:21.208Z,100742.00
2022-10-13T15:33:52.238Z,100744.00
2022-10-13T15:36:21.676Z,100723.00
2022-10-13T15:38:48.904Z,100740.00
2022-10-13T15:41:16.230Z,100746.00
2022-10-13T15:43:43.505Z,100686.00
2022-10-13T15:46:21.425Z,100739.00
2022-10-13T15:48:51.251Z,100746.00
2022-10-13T15:51:21.430Z,100735.00
2022-10-13T15:53:49.333Z,100719.00
2022-10-13T15:56:17.406Z,100734.00
2022-10-13T15:58:45.459Z,100734.00
2022-10-13T16:01:14.108Z,100740.00
2022-10-13T16:03:41.722Z,100743.00
2022-10-13T16:06:12.266Z,100740.00
2022-10-13T16:08:45.565Z,100739.00
2022-10-13T16:11:16.005Z,100738.00
2022-10-13T16:13:50.887Z,100745.00
2022-10-13T16:16:19.119Z,100744.00
2022-10-13T16:18:46.869Z,100746.00
2022-10-13T16:21:23.952Z,100753.00
2022-10-13T16:23:50.863Z,100745.00
2022-10-13T16:26:20.308Z,100738.00
2022-10-13T16:28:47.287Z,100746.00
2022-10-13T16:31:16.895Z,100718.00
2022-10-13T16:33:45.652Z,100741.00
2022-10-13T16:36:19.147Z,100744.00
2022-10-13T16:38:47.875Z,100726.00
2022-10-13T16:41:18.163Z,100731.00
2022-10-13T16:43:47.097Z,100728.00
2022-10-13T16:46:17.697Z,100727.00
2022-10-13T16:48:46.222Z,100733.00
2022-10-13T16:51:22.478Z,100720.00
2022-10-13T16:54:01.181Z,100718.00
2022-10-13T16:56:31.119Z,100726.00
2022-10-13T16:59:01.594Z,100729.00
2022-10-13T17:01:30.748Z,100731.00
2022-10-13T17:03:58.303Z,100729.00
2022-10-13T17:06:28.916Z,100745.00
2022-10-13T17:08:58.860Z,100743.00
2022-10-13T17:11:30.094Z,100724.00
2022-10-13T17:13:59.472Z,100745.00
2022-10-13T17:16:27.527Z,100736.00
2022-10-13T17:18:55.173Z,100731.00
2022-10-13T17:21:22.458Z,100732.00
2022-10-13T17:23:49.881Z,100744.00
2022-10-13T17:26:18.999Z,100732.00
2022-10-13T17:28:46.077Z,100731.00
2022-10-13T17:31:23.894Z,100745.00
2022-10-13T17:33:52.552Z,100740.00
2022-10-13T17:36:34.312Z,100734.00
2022-10-13T17:39:08.841Z,100733.00
2022-10-13T17:41:36.097Z,100720.00
2022-10-13T17:44:03.479Z,100729.00
2022-10-13T17:46:37.441Z,100729.00
2022-10-13T17:49:06.942Z,100726.00
2022-10-13T17:51:34.051Z,100725.00
2022-10-13T17:54:01.135Z,100720.00
2022-10-13T17:56:29.106Z,100730.00
2022-10-13T17:58:56.708Z,100743.00
2022-10-13T18:01:28.519Z,100717.00
2022-10-13T18:04:02.916Z,100718.00
2022-10-13T18:06:38.580Z,100714.00
2022-10-13T18:09:16.139Z,100715.00
2022-10-13T18:11:49.888Z,100721.00
2022-10-13T18:14:23.802Z,100715.00
2022-10-13T18:16:52.393Z,100701.00
2022-10-13T18:19:20.604Z,100715.00
2022-10-13T18:21:47.798Z,100707.00
2022-10-13T18:24:14.842Z,100711.00
2022-10-13T18:26:41.944Z,100703.00
2022-10-13T18:29:11.367Z,100709.00
2022-10-13T18:31:40.550Z,100707.00
2022-10-13T18:34:15.428Z,100697.00
2022-10-13T18:36:48.994Z,100697.00
2022-10-13T18:39:23.153Z,100671.00
2022-10-13T18:41:52.124Z,100690.00
2022-10-13T18:44:21.383Z,100690.00
2022-10-13T18:46:53.798Z,100694.00
2022-10-13T18:49:23.850Z,100692.00
2022-10-13T18:51:51.931Z,100692.00
2022-10-13T18:54:19.000Z,100691.00
2022-10-13T18:56:46.233Z,100681.00
2022-10-13T18:59:13.152Z,100685.00
2022-10-13T19:01:40.935Z,100688.00
2022-10-13T19:04:08.715Z,100681.00
2022-10-13T19:06:35.747Z,100685.00
2022-10-13T19:09:13.318Z,100679.00
2022-10-13T19:11:41.515Z,100613.00
2022-10-13T19:14:12.718Z,100681.00
2022-10-13T19:16:43.556Z,100683.00
2022-10-13T19:19:11.991Z,100679.00
2022-10-13T19:21:39.648Z,100663.00
2022-10-13T19:24:07.895Z,100675.00
2022-10-13T19:26:36.406Z,100669.00
2022-10-13T19:29:11.615Z,100673.00
2022-10-13T19:31:43.200Z,100670.00
2022-10-13T19:34:13.196Z,100669.00
2022-10-13T19:36:46.319Z,100681.00
2022-10-13T19:39:22.006Z,100672.00
2022-10-13T19:41:51.027Z,100671.00
2022-10-13T19:44:19.982Z,100669.00
2022-10-13T19:46:48.357Z,100670.00
2022-10-13T19:49:19.143Z,100666.00
2022-10-13T19:51:47.270Z,100662.00
2022-10-13T19:54:14.807Z,100663.00
2022-10-13T19:56:41.878Z,100658.00
2022-10-13T19:59:09.044Z,100657.00
2022-10-13T20:01:39.997Z,100660.00
2022-10-13T20:04:10.772Z,100653.00
2022-10-13T20:06:38.586Z,100647.00
2022-10-13T20:09:06.459Z,100657.00
2022-10-13T20:11:33.658Z,100653.00
2022-10-13T20:14:00.626Z,100652.00
2022-10-13T20:16:27.668Z,100649.00
2022-10-13T20:19:00.221Z,100644.00
2022-10-13T20:21:29.626Z,100645.00
2022-10-13T20:23:57.583Z,100655.00
2022-10-13T20:26:26.084Z,100651.00
2022-10-13T20:28:54.674Z,100651.00
2022-10-13T20:31:23.281Z,100634.00
2022-10-13T20:33:58.678Z,100645.00
2022-10-13T20:36:27.809Z,100639.00
2022-10-13T20:38:55.436Z,100640.00
2022-10-13T20:41:26.380Z,100645.00
2022-10-13T20:43:57.014Z,100642.00
2022-10-13T20:46:25.528Z,100632.00
2022-10-13T20:49:11.341Z,100655.00
2022-10-13T20:51:40.092Z,100628.00
2022-10-13T20:54:07.753Z,100630.00
2022-10-13T20:56:34.754Z,100627.00
2022-10-13T20:59:08.185Z,100627.00
2022-10-13T21:01:37.010Z,100595.00
2022-10-13T21:04:04.534Z,100629.00
2022-10-13T21:06:31.528Z,100622.00
2022-10-13T21:08:58.540Z,100619.00
2022-10-13T21:11:25.965Z,100619.00
2022-10-13T21:13:53.263Z,100612.00
2022-10-13T21:16:27.053Z,100624.00
2022-10-13T21:18:56.083Z,100618.00
2022-10-13T21:21:27.347Z,100613.00
2022-10-13T21:24:00.531Z,100613.00
2022-10-13T21:26:29.890Z,100603.00
2022-10-13T21:28:57.753Z,100609.00
2022-10-13T21:31:26.046Z,100605.00
2022-10-13T21:33:54.441Z,100608.00
2022-10-13T21:36:28.806Z,100620.00
2022-10-13T21:39:02.661Z,100610.00
2022-10-13T21:41:30.218Z,100613.00
2022-10-13T21:43:57.556Z,100593.00
2022-10-13T21:46:28.317Z,100607.00
2022-10-13T21:48:58.607Z,100601.00
2022-10-13T21:51:38.100Z,100601.00
2022-10-13T21:54:12.720Z,100600.00
2022-10-13T21:56:41.730Z,100598.00
2022-10-13T21:59:12.541Z,100601.00
2022-10-13T22:01:40.074Z,100565.00
2022-10-13T22:04:07.590Z,100595.00
2022-10-13T22:06:34.696Z,100591.00
2022-10-13T22:09:05.191Z,100601.00
2022-10-13T22:11:35.217Z,100593.00
2022-10-13T22:14:02.284Z,100597.00
2022-10-13T22:16:34.458Z,100594.00
2022-10-13T22:19:02.028Z,100595.00
2022-10-13T22:21:35.380Z,100590.00
2022-10-13T22:24:06.331Z,100594.00
2022-10-13T22:26:36.482Z,100588.00
2022-10-13T22:29:06.243Z,100591.00
2022-10-13T22:31:34.146Z,100588.00
2022-10-13T22:34:02.598Z,100594.00
2022-10-13T22:36:33.178Z,100588.00
2022-10-13T22:39:02.984Z,100588.00
2022-10-13T22:41:31.859Z,100588.00
2022-10-13T22:43:59.922Z,100581.00
2022-10-13T22:46:31.528Z,100576.00
2022-10-13T22:48:59.020Z,100581.00
2022-10-13T22:51:28.946Z,100574.00
2022-10-13T22:53:57.424Z,100577.00
2022-10-13T22:56:30.767Z,100568.00
2022-10-13T22:59:08.464Z,100566.00
2022-10-13T23:01:36.629Z,100578.00
2022-10-13T23:04:05.349Z,100548.00
2022-10-13T23:06:35.044Z,100574.00
2022-10-13T23:09:09.406Z,100571.00
2022-10-13T23:11:36.831Z,100570.00
2022-10-13T23:14:04.096Z,100566.00
2022-10-13T23:16:31.819Z,100565.00
2022-10-13T23:18:58.747Z,100557.00
2022-10-13T23:21:28.845Z,100573.00
2022-10-13T23:24:02.116Z,100568.00
2022-10-13T23:26:29.516Z,100566.00
2022-10-13T23:28:58.033Z,100565.00
2022-10-13T23:31:27.392Z,100564.00
2022-10-13T23:33:55.232Z,100565.00
2022-10-13T23:36:26.335Z,100566.00
2022-10-13T23:38:58.467Z,100565.00
2022-10-13T23:41:26.744Z,100570.00
2022-10-13T23:43:53.894Z,100562.00
2022-10-13T23:46:21.424Z,100553.00
2022-10-13T23:48:48.452Z,100563.00
2022-10-13T23:51:20.067Z,100561.00
2022-10-13T23:53:47.445Z,100556.00
2022-10-13T23:56:14.960Z,100552.00
2022-10-13T23:58:44.501Z,100555.00
